Time;durP1;ratioP1;P1;durP2;ratioP2;P2;SDS_P1;SDS_P2;PMS_P1;PMS_P2;Temp;Humidity;BMP_temperature;BMP_pressure;BME280_temperature;BME280_humidity;BME280_pressure;Samples;Min_cycle;Max_cycle;Signal;HPM_P1;HPM_P2
2022/02/05 00:00:28;;;;;;;1.53;0.87;;;;;;;2.41;100.00;99915.53;6097285;23;20453;-79
2022/02/05 00:05:45;;;;;;;2.87;1.20;;;;;;;2.46;100.00;99920.75;6120487;23;20057;-79
2022/02/05 00:15:51;;;;;;;2.37;1.50;;;;;;;2.50;100.00;99940.72;6098772;23;20029;-79
2022/02/05 00:40:47;;;;;;;3.00;1.47;;;;;;;2.55;100.00;99998.97;6122635;23;20048;-80
2022/02/05 00:43:16;;;;;;;2.17;1.40;;;;;;;2.54;100.00;100005.06;6078345;23;20021;-80
2022/02/05 00:45:47;;;;;;;4.70;1.80;;;;;;;2.49;100.00;99988.53;6124585;23;20041;-80
2022/02/05 00:48:14;;;;;;;4.33;1.93;;;;;;;2.56;100.00;100010.28;6098797;23;20022;-79
2022/02/05 00:50:46;;;;;;;3.43;1.90;;;;;;;2.53;100.00;100009.41;6123292;23;20029;-78
2022/02/05 00:53:33;;;;;;;2.87;1.67;;;;;;;2.54;100.00;100018.09;6099249;23;20018;-79
2022/02/05 00:58:58;;;;;;;6.40;2.00;;;;;;;2.49;100.00;100022.41;6072816;23;20026;-79
2022/02/05 01:01:25;;;;;;;5.00;2.50;;;;;;;2.48;100.00;100029.38;6123429;23;20022;-79
2022/02/05 01:03:51;;;;;;;3.63;1.90;;;;;;;2.49;100.00;100031.09;6097583;23;20389;-80
2022/02/05 01:06:18;;;;;;;5.43;2.50;;;;;;;2.58;100.00;100042.44;6099622;23;20077;-79
2022/02/05 01:08:45;;;;;;;4.30;2.20;;;;;;;2.60;100.00;100044.16;6097683;23;20329;-79
2022/02/05 01:11:12;;;;;;;5.87;1.90;;;;;;;2.59;100.00;100058.06;6098764;23;20030;-80
2022/02/05 01:13:39;;;;;;;8.70;2.27;;;;;;;2.59;100.00;100058.06;6097973;23;20080;-80
2022/02/05 01:16:17;;;;;;;4.23;2.33;;;;;;;2.57;100.00;100059.81;6099535;23;20030;-79
2022/02/05 01:18:45;;;;;;;4.17;1.97;;;;;;;2.58;100.00;100073.72;6100201;23;20022;-79
2022/02/05 01:23:47;;;;;;;5.77;1.70;;;;;;;2.47;100.00;100065.88;6121934;23;20033;-79
2022/02/05 01:26:32;;;;;;;4.10;2.67;;;;;;;2.55;100.00;100074.59;6101222;23;20026;-79
2022/02/05 01:29:04;;;;;;;3.33;2.10;;;;;;;2.59;100.00;100071.09;6122204;23;20017;-80
2022/02/05 01:31:38;;;;;;;4.30;2.10;;;;;;;2.61;100.00;100066.78;6100139;23;20361;-79
2022/02/05 01:34:15;;;;;;;5.35;2.35;;;;;;;2.69;100.00;100083.31;6098003;23;20097;-79
2022/02/05 01:48:52;;;;;;;7.53;2.37;;;;;;;2.60;100.00;100090.22;6121786;23;20022;-79
2022/02/05 01:58:19;;;;;;;5.00;2.47;;;;;;;2.72;100.00;100101.59;6121260;23;20441;-79
2022/02/05 02:19:53;;;;;;;6.63;3.13;;;;;;;2.82;100.00;100125.94;6096686;23;20030;-80
2022/02/05 02:30:16;;;;;;;14.10;4.50;;;;;;;2.87;100.00;100147.72;6095727;23;20711;-80
2022/02/05 02:32:51;;;;;;;7.97;3.50;;;;;;;2.85;100.00;100159.84;6119117;23;20394;-81
2022/02/05 02:35:23;;;;;;;7.93;2.90;;;;;;;2.84;100.00;100163.34;6120680;23;20072;-80
2022/02/05 02:37:54;;;;;;;7.27;3.17;;;;;;;2.84;100.00;100165.94;6129144;23;20018;-80
2022/02/05 02:40:35;;;;;;;8.10;3.23;;;;;;;2.86;100.00;100159.00;6102042;23;20798;-80
2022/02/05 02:43:07;;;;;;;5.27;2.90;;;;;;;2.82;100.00;100163.34;6100402;23;20052;-82
2022/02/05 02:45:34;;;;;;;7.20;3.27;;;;;;;2.79;100.00;100168.56;6102286;23;20516;-79
2022/02/05 02:48:01;;;;;;;8.03;3.33;;;;;;;2.79;100.00;100165.06;6099457;23;20108;-79
2022/02/05 02:50:33;;;;;;;8.97;3.23;;;;;;;2.85;100.00;100172.91;6075926;23;20025;-80
2022/02/05 02:58:34;;;;;;;9.87;2.97;;;;;;;2.93;100.00;100183.34;6123135;23;20397;-80
2022/02/05 03:01:02;;;;;;;9.30;3.33;;;;;;;2.92;100.00;100185.09;6077462;23;20664;-80
2022/02/05 03:03:32;;;;;;;9.67;3.30;;;;;;;2.85;100.00;100190.28;6123063;23;20030;-80
2022/02/05 03:05:58;;;;;;;9.47;3.37;;;;;;;2.87;100.00;100189.44;6125124;23;20021;-80
2022/02/05 03:08:25;;;;;;;8.27;3.73;;;;;;;2.94;100.00;100185.97;6123717;23;20021;-81
2022/02/05 03:10:51;;;;;;;6.97;2.37;;;;;;;2.92;100.00;100192.06;6100925;23;20381;-79
2022/02/05 03:13:18;;;;;;;8.23;3.30;;;;;;;3.03;100.00;100192.97;6144954;23;20060;-80
2022/02/05 03:15:45;;;;;;;6.17;2.60;;;;;;;2.94;100.00;100192.94;6125141;23;20025;-79
2022/02/05 03:18:26;;;;;;;6.33;2.50;;;;;;;2.85;100.00;100190.28;6098419;23;20080;-79
2022/02/05 03:20:52;;;;;;;6.63;2.47;;;;;;;2.96;100.00;100199.91;6100125;23;20053;-80
2022/02/05 03:23:19;;;;;;;6.60;2.30;;;;;;;2.92;100.00;100190.31;6098066;23;20021;-79
2022/02/05 03:25:46;;;;;;;10.50;2.90;;;;;;;2.91;100.00;100185.97;6124802;23;20461;-80
2022/02/05 03:28:12;;;;;;;10.00;2.57;;;;;;;2.91;100.00;100188.56;6123249;23;20018;-79
2022/02/05 03:30:39;;;;;;;7.00;2.40;;;;;;;2.92;100.00;100192.94;6076432;23;20025;-80
2022/02/05 03:33:06;;;;;;;5.13;2.30;;;;;;;2.97;100.00;100196.44;6148849;23;20461;-79
2022/02/05 03:35:34;;;;;;;6.77;2.30;;;;;;;2.92;100.00;100199.88;6125105;23;20029;-79
2022/02/05 03:38:00;;;;;;;5.40;2.50;;;;;;;3.04;100.00;100194.72;6098240;23;20079;-79
2022/02/05 03:40:27;;;;;;;7.63;2.70;;;;;;;3.08;100.00;100191.22;6124286;23;20022;-79
2022/02/05 03:42:54;;;;;;;6.20;2.50;;;;;;;2.99;100.00;100191.22;6098684;23;20457;-80
2022/02/05 03:45:20;;;;;;;8.43;2.97;;;;;;;2.94;100.00;100204.22;6101133;23;20072;-79
2022/02/05 03:47:50;;;;;;;6.37;2.70;;;;;;;2.95;100.00;100192.97;6123942;23;20020;-79
2022/02/05 03:50:17;;;;;;;4.50;2.20;;;;;;;3.03;100.00;100201.69;6100633;23;20021;-79
2022/02/05 03:52:44;;;;;;;8.87;2.50;;;;;;;3.04;100.00;100202.53;6098868;23;20419;-81
2022/02/05 03:55:11;;;;;;;8.73;2.63;;;;;;;3.04;100.00;100218.22;6101021;23;20028;-79
2022/02/05 03:57:38;;;;;;;8.07;3.93;;;;;;;3.04;100.00;100219.06;6099234;23;20049;-79
2022/02/05 04:00:09;;;;;;;6.73;2.37;;;;;;;3.08;100.00;100217.34;6122953;23;20025;-79
2022/02/05 04:02:38;;;;;;;5.50;2.60;;;;;;;3.12;100.00;100221.72;6076684;23;20553;-79
2022/02/05 04:05:05;;;;;;;6.30;2.43;;;;;;;3.08;100.00;100225.16;6099176;23;20404;-79
2022/02/05 04:07:36;;;;;;;4.97;2.43;;;;;;;3.09;100.00;100237.34;6125942;23;20021;-82
2022/02/05 04:10:06;;;;;;;4.53;2.53;;;;;;;3.10;100.00;100242.56;6102673;23;20635;-81
2022/02/05 04:18:03;;;;;;;7.13;3.30;;;;;;;3.06;100.00;100240.81;6105781;23;20084;-79
2022/02/05 04:20:29;;;;;;;5.67;2.10;;;;;;;3.03;100.00;100239.94;6103034;23;20029;-81
2022/02/05 04:22:57;;;;;;;7.23;2.27;;;;;;;3.14;100.00;100239.97;6101569;23;20497;-79
2022/02/05 04:25:23;;;;;;;5.33;2.50;;;;;;;3.14;100.00;100248.69;6104058;23;20026;-79
2022/02/05 04:27:50;;;;;;;6.13;2.37;;;;;;;3.09;100.00;100245.16;6101950;23;20018;-81
2022/02/05 04:30:17;;;;;;;5.17;2.40;;;;;;;3.11;100.00;100238.22;6103793;23;20453;-84
2022/02/05 04:32:44;;;;;;;5.10;2.13;;;;;;;3.05;100.00;100233.88;6104455;23;20025;-82
2022/02/05 04:35:10;;;;;;;6.70;2.20;;;;;;;3.09;100.00;100233.00;6129228;23;20025;-79
2022/02/05 04:37:37;;;;;;;5.17;2.00;;;;;;;3.07;100.00;100239.94;6099679;23;20450;-84
2022/02/05 04:42:42;;;;;;;5.33;2.03;;;;;;;3.16;100.00;100241.72;6126187;23;20066;-79
2022/02/05 04:45:35;;;;;;;4.37;2.20;;;;;;;3.12;100.00;100233.88;6077463;23;20025;-82
2022/02/05 04:53:36;;;;;;;6.30;2.47;;;;;;;3.14;100.00;100243.47;6100256;23;20026;-79
2022/02/05 04:59:10;;;;;;;9.77;3.93;;;;;;;3.18;100.00;100257.38;6125546;23;20018;-79
2022/02/05 05:09:34;;;;;;;7.30;3.20;;;;;;;3.04;100.00;100265.19;6123913;23;20022;-78
2022/02/05 05:20:18;;;;;;;4.93;2.63;;;;;;;2.97;100.00;100266.00;6123192;23;20077;-79
2022/02/05 05:22:44;;;;;;;7.23;4.00;;;;;;;2.95;100.00;100263.41;6074931;23;20343;-82
2022/02/05 05:25:14;;;;;;;5.23;3.13;;;;;;;3.00;100.00;100268.63;6124269;23;20026;-78
2022/02/05 05:27:41;;;;;;;10.87;3.30;;;;;;;2.91;100.00;100272.06;6099152;23;20069;-79
2022/02/05 05:30:08;;;;;;;6.13;3.03;;;;;;;2.95;100.00;100267.75;6122206;23;20084;-80
2022/02/05 05:32:35;;;;;;;5.57;3.40;;;;;;;2.90;100.00;100275.56;6099536;23;20029;-83
2022/02/05 05:35:03;;;;;;;7.53;3.53;;;;;;;2.96;100.00;100282.53;6099093;23;20050;-78
2022/02/05 05:37:29;;;;;;;4.50;3.00;;;;;;;2.95;100.00;100279.06;6105115;23;20503;-79
2022/02/05 05:39:56;;;;;;;7.90;3.07;;;;;;;2.83;100.00;100277.25;6102591;23;20033;-79
2022/02/05 05:42:31;;;;;;;5.30;3.00;;;;;;;2.94;100.00;100279.03;6105758;23;20350;-82
2022/02/05 05:47:37;;;;;;;7.07;3.20;;;;;;;2.91;100.00;100290.34;6108020;23;20017;-81
2022/02/05 05:50:11;;;;;;;4.90;2.67;;;;;;;2.92;100.00;100283.38;6080869;23;20025;-80
2022/02/05 05:52:38;;;;;;;8.20;3.23;;;;;;;2.87;100.00;100287.72;6130525;23;20408;-80
2022/02/05 05:55:05;;;;;;;6.93;3.27;;;;;;;2.83;100.00;100289.44;6104755;23;20279;-79
2022/02/05 05:57:32;;;;;;;7.03;3.57;;;;;;;2.88;100.00;100294.69;6104689;23;20022;-79
2022/02/05 05:59:59;;;;;;;6.83;2.97;;;;;;;2.85;100.00;100299.88;6102885;23;20516;-80
2022/02/05 06:02:26;;;;;;;7.30;3.97;;;;;;;2.87;100.00;100301.63;6105016;23;20076;-81
2022/02/05 06:04:52;;;;;;;16.30;4.43;;;;;;;2.93;100.00;100303.38;6078951;23;20045;-79
2022/02/05 06:07:19;;;;;;;8.63;3.60;;;;;;;2.91;100.00;100310.34;6104200;23;20025;-79
2022/02/05 06:09:46;;;;;;;7.33;2.97;;;;;;;2.85;100.00;100315.50;6078389;23;20021;-81
2022/02/05 06:12:12;;;;;;;5.73;3.17;;;;;;;2.78;100.00;100312.91;6103656;23;20076;-79
2022/02/05 06:14:40;;;;;;;6.13;3.37;;;;;;;2.86;100.00;100312.03;6125931;23;20065;-79
2022/02/05 06:17:14;;;;;;;6.47;2.97;;;;;;;2.92;100.00;100323.38;6106458;23;20017;-80
2022/02/05 06:19:42;;;;;;;6.17;3.00;;;;;;;2.89;100.00;100319.91;6126219;23;20484;-80
2022/02/05 06:22:09;;;;;;;5.07;2.70;;;;;;;2.85;100.00;100326.81;6103975;23;20032;-80
2022/02/05 06:24:36;;;;;;;5.10;3.77;;;;;;;2.85;100.00;100320.75;6078226;23;20421;-79
2022/02/05 06:27:03;;;;;;;7.13;4.00;;;;;;;2.79;100.00;100324.19;6127637;23;20473;-79
2022/02/05 06:29:30;;;;;;;6.93;4.27;;;;;;;2.87;100.00;100332.94;6101700;23;20018;-79
2022/02/05 06:31:56;;;;;;;5.30;3.30;;;;;;;2.87;100.00;100335.56;6126152;23;20029;-79
2022/02/05 06:34:23;;;;;;;8.17;3.40;;;;;;;2.86;100.00;100335.53;6125728;23;20528;-79
2022/02/05 06:36:50;;;;;;;8.53;4.37;;;;;;;2.91;100.00;100339.03;6127845;23;20021;-79
2022/02/05 06:39:17;;;;;;;8.13;3.40;;;;;;;2.92;100.00;100331.22;6101210;23;20072;-79
2022/02/05 06:41:43;;;;;;;8.17;3.60;;;;;;;2.91;100.00;100331.22;6127186;23;20515;-79
2022/02/05 06:44:11;;;;;;;10.83;5.10;;;;;;;2.88;100.00;100344.25;6125748;23;20029;-79
2022/02/05 06:46:39;;;;;;;9.93;3.83;;;;;;;2.79;100.00;100348.56;6103570;23;20349;-79
2022/02/05 06:49:06;;;;;;;7.87;3.33;;;;;;;2.91;100.00;100352.09;6101529;23;20021;-79
2022/02/05 06:51:33;;;;;;;5.83;3.83;;;;;;;2.87;100.00;100358.16;6102681;23;20117;-79
2022/02/05 06:54:00;;;;;;;6.13;2.90;;;;;;;2.89;100.00;100357.31;6125700;23;20017;-79
2022/02/05 06:56:27;;;;;;;10.37;3.77;;;;;;;2.86;100.00;100364.22;6103759;23;20028;-79
2022/02/05 06:58:54;;;;;;;8.23;4.00;;;;;;;2.86;100.00;100366.81;6100622;23;20385;-79
2022/02/05 07:01:20;;;;;;;6.27;3.20;;;;;;;2.79;100.00;100374.66;6078584;23;20517;-79
2022/02/05 07:03:47;;;;;;;4.83;3.40;;;;;;;2.73;100.00;100382.41;6100873;23;20097;-79
2022/02/05 07:06:14;;;;;;;6.60;2.80;;;;;;;2.66;100.00;100395.41;6079300;23;20021;-79
2022/02/05 07:08:41;;;;;;;5.60;2.80;;;;;;;2.68;100.00;100407.59;6100044;23;20063;-79
2022/02/05 07:11:08;;;;;;;7.07;3.00;;;;;;;2.56;100.00;100407.50;6078694;23;20076;-79
2022/02/05 07:13:36;;;;;;;3.70;2.43;;;;;;;2.65;100.00;100412.78;6124970;23;20488;-79
2022/02/05 07:16:24;;;;;;;6.80;2.27;;;;;;;2.64;100.00;100418.88;6128923;23;20029;-80
2022/02/05 07:19:45;;;;;;;4.47;1.90;;;;;;;2.66;100.00;100427.56;6106831;23;20022;-79
2022/02/05 07:21:43;;;;;;;4.50;2.23;;;;;;;2.66;100.00;100426.69;6144283;23;20473;-79
2022/02/05 07:24:23;;;;;;;4.47;1.90;;;;;;;2.61;100.00;100438.84;6128843;23;20017;-79
2022/02/05 07:29:35;;;;;;;4.53;1.30;;;;;;;2.68;100.00;100435.41;6106007;23;20068;-80
2022/02/05 07:32:02;;;;;;;3.30;1.77;;;;;;;2.65;100.00;100451.03;6102764;23;20102;-79
2022/02/05 07:34:31;;;;;;;2.93;2.03;;;;;;;2.61;100.00;100446.69;6101189;23;20021;-80
2022/02/05 07:37:04;;;;;;;3.17;1.67;;;;;;;2.61;100.00;100450.16;6102813;23;20029;-79
2022/02/05 07:39:34;;;;;;;2.60;1.20;;;;;;;2.61;100.00;100471.03;6120333;23;20018;-79
2022/02/05 07:42:03;;;;;;;2.20;1.50;;;;;;;2.66;100.00;100455.38;6121570;23;20457;-79
2022/02/05 07:44:30;;;;;;;8.17;1.80;;;;;;;2.62;100.00;100480.59;6096693;23;20092;-79
2022/02/05 07:47:00;;;;;;;4.50;1.50;;;;;;;2.65;100.00;100471.91;6074042;23;20033;-79
2022/02/05 07:49:29;;;;;;;1.73;1.17;;;;;;;2.65;100.00;100485.81;6096740;23;20041;-80
2022/02/05 07:51:56;;;;;;;2.70;1.63;;;;;;;2.73;100.00;100480.66;6104530;23;20018;-82
2022/02/05 07:54:23;;;;;;;4.53;2.23;;;;;;;2.75;100.00;100495.47;6100598;23;20029;-82
2022/02/05 07:56:53;;;;;;;3.17;1.30;;;;;;;2.60;100.00;100492.72;6127579;23;20021;-82
2022/02/05 07:59:20;;;;;;;3.17;1.00;;;;;;;2.58;100.00;100497.03;6124027;23;20017;-82
2022/02/05 08:01:47;;;;;;;2.17;0.97;;;;;;;2.67;100.00;100494.53;6079536;23;20077;-83
2022/02/05 08:04:14;;;;;;;4.60;1.23;;;;;;;2.73;100.00;100499.81;6072423;23;20390;-82
2022/02/05 08:06:44;;;;;;;2.80;1.00;;;;;;;2.71;100.00;100508.47;6098213;23;20046;-82
2022/02/05 08:11:46;;;;;;;2.43;1.10;;;;;;;2.68;100.00;100517.13;6074174;23;20623;-83
2022/02/05 08:14:13;;;;;;;2.13;0.83;;;;;;;2.66;100.00;100500.59;6097127;23;20393;-82
2022/02/05 08:19:07;;;;;;;3.23;0.90;;;;;;;2.70;100.00;100519.78;6096907;23;20014;-83
2022/02/05 08:21:34;;;;;;;2.53;1.20;;;;;;;2.68;100.00;100522.34;6098006;23;20052;-83
2022/02/05 08:24:01;;;;;;;4.67;1.20;;;;;;;2.61;100.00;100519.69;6096208;23;20032;-83
2022/02/05 08:26:29;;;;;;;3.07;1.20;;;;;;;2.69;100.00;100525.81;6050192;23;20046;-83
2022/02/05 08:28:58;;;;;;;2.27;0.90;;;;;;;2.75;100.00;100529.38;6072440;23;20021;-83
2022/02/05 08:31:25;;;;;;;2.70;1.10;;;;;;;2.82;100.00;100531.19;6050256;23;20105;-84
2022/02/05 08:33:52;;;;;;;1.47;0.87;;;;;;;2.83;100.00;100532.94;6073062;23;20022;-83
2022/02/05 08:36:22;;;;;;;1.60;0.90;;;;;;;2.88;100.00;100527.75;6074158;23;20488;-83
2022/02/05 08:38:50;;;;;;;5.83;1.17;;;;;;;2.85;100.00;100534.69;6049179;23;20101;-82
2022/02/05 08:41:17;;;;;;;2.03;0.87;;;;;;;2.88;100.00;100538.19;6097699;23;20021;-83
2022/02/05 08:43:44;;;;;;;2.67;0.83;;;;;;;2.89;100.00;100533.84;6073120;23;20053;-83
2022/02/05 08:46:11;;;;;;;1.10;0.87;;;;;;;2.94;100.00;100538.22;6051016;23;20468;-83
2022/02/05 08:48:38;;;;;;;1.70;1.03;;;;;;;2.98;100.00;100540.03;6096572;23;20022;-83
2022/02/05 08:51:05;;;;;;;1.77;1.10;;;;;;;3.06;100.00;100540.09;6073350;23;20045;-83
2022/02/05 08:53:33;;;;;;;1.43;1.00;;;;;;;3.16;100.00;100544.50;6072430;23;20022;-83
2022/02/05 08:56:00;;;;;;;1.37;0.93;;;;;;;3.08;100.00;100541.84;6100107;23;20113;-84
2022/02/05 08:58:27;;;;;;;1.73;1.00;;;;;;;3.18;100.00;100554.97;6050834;23;20029;-82
2022/02/05 09:01:08;;;;;;;2.47;1.07;;;;;;;3.24;100.00;100549.78;6075801;23;20080;-84
2022/02/05 09:06:32;;;;;;;3.53;1.20;;;;;;;3.29;100.00;100553.31;6058826;23;20029;-82
2022/02/05 09:09:32;;;;;;;3.40;1.00;;;;;;;3.31;100.00;100570.75;6122558;23;20093;-84
2022/02/05 09:11:58;;;;;;;2.10;1.57;;;;;;;3.29;100.00;100561.16;6078902;23;20048;-83
2022/02/05 09:14:35;;;;;;;1.87;1.10;;;;;;;3.31;100.00;100562.03;6075274;23;20514;-82
2022/02/05 09:17:03;;;;;;;4.73;1.07;;;;;;;3.39;100.00;100576.91;6054126;23;20034;-83
2022/02/05 09:19:33;;;;;;;2.10;1.00;;;;;;;3.48;100.00;100570.00;6097754;23;20026;-83
2022/02/05 09:22:00;;;;;;;2.77;1.17;;;;;;;3.57;99.98;100583.09;6075713;23;20032;-84
2022/02/05 09:24:27;;;;;;;4.87;1.57;;;;;;;3.63;99.88;100577.94;6073113;23;20028;-82
2022/02/05 09:27:03;;;;;;;3.87;1.30;;;;;;;3.63;99.11;100583.16;6051451;23;20072;-83
2022/02/05 09:29:35;;;;;;;1.13;0.90;;;;;;;3.63;98.08;100584.03;6074966;23;20069;-82
2022/02/05 09:32:03;;;;;;;2.13;1.10;;;;;;;3.70;97.64;100586.66;6076553;23;20026;-82
2022/02/05 09:34:30;;;;;;;5.07;1.20;;;;;;;3.69;98.90;100585.78;6073976;23;20025;-83
2022/02/05 09:36:58;;;;;;;6.10;2.90;;;;;;;3.75;98.96;100579.72;6099489;23;20458;-82
2022/02/05 09:39:25;;;;;;;2.27;1.20;;;;;;;3.81;100.00;100585.00;6073086;23;20018;-84
2022/02/05 09:41:51;;;;;;;2.43;1.10;;;;;;;3.92;98.22;100594.63;6099192;23;20065;-83
2022/02/05 09:44:18;;;;;;;3.83;1.40;;;;;;;3.84;96.58;100593.72;6050546;23;20037;-84
2022/02/05 09:46:45;;;;;;;3.10;1.40;;;;;;;3.91;96.38;100603.34;6099411;23;20080;-82
2022/02/05 09:49:14;;;;;;;2.03;1.10;;;;;;;3.95;96.97;100610.34;6073399;23;20453;-82
2022/02/05 09:51:50;;;;;;;4.67;1.10;;;;;;;4.00;94.60;100612.97;6074370;23;20413;-82
2022/02/05 09:54:19;;;;;;;6.00;1.87;;;;;;;3.99;94.39;100626.06;6075511;23;20022;-82
2022/02/05 09:56:47;;;;;;;3.53;1.60;;;;;;;4.02;96.94;100623.44;6098757;23;20026;-85
2022/02/05 09:59:13;;;;;;;3.13;1.30;;;;;;;4.08;98.35;100640.03;6073999;23;20018;-84
2022/02/05 10:01:40;;;;;;;3.67;1.20;;;;;;;4.08;96.71;100634.81;6098452;23;20030;-84
2022/02/05 10:04:11;;;;;;;2.37;1.37;;;;;;;4.12;95.68;100639.22;6072891;23;20100;-83
2022/02/05 10:06:47;;;;;;;2.23;1.10;;;;;;;4.11;95.75;100628.72;6075575;23;20504;-83
2022/02/05 10:09:16;;;;;;;3.37;1.37;;;;;;;4.14;94.50;100636.59;6073134;23;20094;-84
2022/02/05 10:11:59;;;;;;;4.47;1.30;;;;;;;4.05;94.29;100649.63;6074416;23;20081;-83
2022/02/05 10:14:28;;;;;;;3.73;1.10;;;;;;;4.05;96.78;100650.50;6073801;23;20081;-83
2022/02/05 10:16:57;;;;;;;2.93;1.27;;;;;;;4.15;94.89;100643.56;6098296;23;20022;-83
2022/02/05 10:19:43;;;;;;;4.73;2.00;;;;;;;4.17;94.90;100647.06;6097125;23;20097;-83
2022/02/05 10:22:10;;;;;;;5.17;1.10;;;;;;;4.27;95.06;100655.81;6097236;23;20085;-84
2022/02/05 10:24:51;;;;;;;5.10;1.37;;;;;;;4.38;96.06;100657.63;6071978;23;20358;-83
2022/02/05 10:27:29;;;;;;;4.93;1.93;;;;;;;4.48;93.76;100643.72;6097909;23;20053;-83
2022/02/05 10:30:09;;;;;;;2.47;1.70;;;;;;;4.64;93.53;100651.63;6048708;23;20365;-84
2022/02/05 10:32:42;;;;;;;4.07;1.20;;;;;;;4.72;91.04;100653.41;6098721;23;20029;-82
2022/02/05 10:38:30;;;;;;;4.43;1.30;;;;;;;4.86;90.72;100653.44;6075392;23;20036;-83
2022/02/05 10:43:10;;;;;;;5.90;1.40;;;;;;;4.83;89.82;100673.50;6075284;23;20378;-80
2022/02/05 10:45:39;;;;;;;4.17;1.40;;;;;;;4.78;89.46;100670.84;6053711;23;20021;-82
2022/02/05 10:48:12;;;;;;;3.70;1.70;;;;;;;4.66;87.79;100662.97;6078043;23;20025;-80
2022/02/05 10:50:39;;;;;;;6.23;1.60;;;;;;;4.71;88.76;100664.75;6076617;23;20018;-80
2022/02/05 10:53:22;;;;;;;3.60;1.47;;;;;;;4.83;89.91;100669.13;6096913;23;20105;-79
2022/02/05 11:07:32;;;;;;;8.63;2.40;;;;;;;4.76;87.95;100673.47;6127801;23;20021;-82
2022/02/05 11:10:00;;;;;;;4.93;1.60;;;;;;;4.79;88.82;100662.13;6069989;23;20025;-80
2022/02/05 11:15:56;;;;;;;4.33;2.03;;;;;;;4.88;90.17;100663.94;6103647;23;20022;-81
2022/02/05 11:18:31;;;;;;;8.13;2.40;;;;;;;5.07;88.78;100655.25;6081416;23;20050;-81
2022/02/05 11:20:58;;;;;;;4.43;2.00;;;;;;;5.14;86.07;100664.84;6082884;23;20022;-81
2022/02/05 11:23:28;;;;;;;8.10;2.23;;;;;;;5.13;86.48;100660.50;6075240;23;20025;-81
2022/02/05 11:25:57;;;;;;;8.03;2.40;;;;;;;5.16;85.04;100667.47;6100839;23;20044;-81
2022/02/05 11:28:48;;;;;;;5.97;2.20;;;;;;;5.15;86.11;100678.81;6099098;23;20196;-81
2022/02/05 11:34:36;;;;;;;4.30;1.85;;;;;;;5.33;85.32;100665.75;6097650;23;20025;-83
2022/02/05 11:37:04;;;;;;;6.60;2.30;;;;;;;5.21;80.47;100677.09;6122441;23;20034;-80
2022/02/05 11:39:51;;;;;;;5.07;1.87;;;;;;;5.45;82.67;100664.88;6072956;23;20073;-81
2022/02/05 11:42:25;;;;;;;7.13;2.40;;;;;;;5.82;82.75;100671.88;6074070;23;20409;-82
2022/02/05 11:44:58;;;;;;;4.23;2.30;;;;;;;6.00;80.54;100686.75;6120327;23;20033;-81
2022/02/05 11:47:27;;;;;;;6.53;2.10;;;;;;;5.94;80.09;100665.75;6099224;23;20077;-80
2022/02/05 11:49:55;;;;;;;14.17;6.20;;;;;;;5.98;78.32;100662.28;6073119;23;20018;-79
2022/02/05 11:52:39;;;;;;;19.30;12.30;;;;;;;6.02;78.25;100657.88;6117611;23;20032;-81
2022/02/05 11:55:06;;;;;;;4.53;2.60;;;;;;;6.08;75.32;100665.75;6117068;23;20022;-80
2022/02/05 11:57:45;;;;;;;9.80;6.13;;;;;;;6.14;76.45;100665.75;6069431;23;20033;-80
2022/02/05 12:00:23;;;;;;;4.60;2.23;;;;;;;6.23;76.72;100668.34;6092418;23;20375;-83
2022/02/05 12:02:59;;;;;;;7.90;2.07;;;;;;;6.33;74.13;100661.31;6044736;23;20413;-81
2022/02/05 12:05:34;;;;;;;7.07;2.93;;;;;;;6.50;76.72;100662.13;6047757;23;20030;-79
2022/02/05 12:08:04;;;;;;;11.83;3.40;;;;;;;6.58;74.36;100670.84;6044465;23;20030;-80
2022/02/05 12:10:44;;;;;;;9.60;2.83;;;;;;;6.58;74.18;100667.34;6093054;23;20198;-81
2022/02/05 12:13:19;;;;;;;7.70;2.80;;;;;;;6.54;74.40;100678.72;6069002;23;20563;-81
2022/02/05 12:16:10;;;;;;;6.67;2.57;;;;;;;6.56;74.17;100666.44;6093709;23;20023;-81
2022/02/05 12:19:10;;;;;;;8.33;3.00;;;;;;;6.27;72.66;100670.06;6114483;23;20077;-82
2022/02/05 12:21:51;;;;;;;5.50;1.90;;;;;;;6.23;75.89;100673.59;6091812;23;20029;-81
2022/02/05 12:24:34;;;;;;;5.10;1.63;;;;;;;6.13;77.09;100677.94;6065213;23;20019;-82
2022/02/05 12:27:29;;;;;;;4.70;2.00;;;;;;;6.13;78.44;100667.47;6050006;23;20057;-81
2022/02/05 12:30:29;;;;;;;77.53;72.83;;;;;;;5.98;77.94;100675.38;6092895;23;20350;-82
2022/02/05 12:32:56;;;;;;;12.40;4.77;;;;;;;6.05;79.53;100673.59;6118563;23;20458;-84
2022/02/05 12:35:23;;;;;;;7.30;1.97;;;;;;;6.04;77.10;100664.84;6072566;23;20370;-82
2022/02/05 12:37:52;;;;;;;8.13;2.93;;;;;;;6.04;79.67;100662.22;6046064;23;20101;-82
2022/02/05 12:40:19;;;;;;;11.20;2.57;;;;;;;6.10;78.07;100661.34;6070601;23;20046;-82
2022/02/05 12:42:56;;;;;;;9.87;2.77;;;;;;;6.09;78.71;100655.25;6046410;23;20022;-80
2022/02/05 12:45:47;;;;;;;6.70;3.00;;;;;;;5.98;77.13;100662.28;6049009;23;20078;-82
2022/02/05 12:48:18;;;;;;;8.17;2.90;;;;;;;6.00;77.21;100654.41;6047021;23;20026;-81
2022/02/05 12:50:45;;;;;;;7.20;2.30;;;;;;;5.89;75.84;100670.13;6071089;23;20543;-83
2022/02/05 12:53:11;;;;;;;7.40;2.60;;;;;;;5.83;76.67;100673.59;6074143;23;20025;-82
2022/02/05 12:55:45;;;;;;;5.33;1.87;;;;;;;5.79;78.95;100678.84;6100054;23;20025;-80
2022/02/05 12:58:16;;;;;;;4.10;2.40;;;;;;;5.75;77.88;100667.50;6075808;23;20052;-80
2022/02/05 13:00:43;;;;;;;8.93;3.20;;;;;;;5.60;77.45;100670.13;6052020;23;20049;-82
2022/02/05 13:03:24;;;;;;;7.30;2.80;;;;;;;5.67;77.13;100671.88;6073645;23;20026;-81
2022/02/05 13:05:50;;;;;;;6.43;2.37;;;;;;;5.66;76.15;100667.50;6099027;23;20022;-82
2022/02/05 13:08:17;;;;;;;12.97;5.30;;;;;;;5.65;77.62;100677.13;6073710;23;20387;-82
2022/02/05 13:10:45;;;;;;;20.93;9.73;;;;;;;5.68;77.06;100668.38;6074324;23;20022;-82
2022/02/05 13:13:13;;;;;;;18.07;7.53;;;;;;;5.68;77.75;100673.63;6097501;23;20045;-81
2022/02/05 13:16:00;;;;;;;17.37;8.43;;;;;;;5.66;77.55;100672.75;6080034;23;20024;-82
2022/02/05 13:18:41;;;;;;;15.97;6.23;;;;;;;5.73;77.16;100678.88;6097895;23;20026;-82
2022/02/05 13:27:09;;;;;;;10.83;4.33;;;;;;;5.68;77.42;100678.84;6079555;23;20022;-81
2022/02/05 13:29:56;;;;;;;7.67;3.43;;;;;;;5.58;77.12;100687.59;6078238;23;20026;-81
2022/02/05 13:35:09;;;;;;;9.53;2.80;;;;;;;5.49;76.30;100677.13;6078531;23;20060;-81
2022/02/05 13:37:50;;;;;;;5.50;2.50;;;;;;;5.55;78.73;100698.06;6075715;23;20025;-81
2022/02/05 13:40:23;;;;;;;11.40;2.93;;;;;;;5.45;80.41;100691.94;6077299;23;20033;-81
2022/02/05 13:42:53;;;;;;;10.15;3.50;;;;;;;5.32;77.92;100679.72;6050257;23;20072;-82
2022/02/05 13:45:35;;;;;;;5.47;2.83;;;;;;;5.35;79.21;100691.06;6100019;23;20030;-81
2022/02/05 13:48:05;;;;;;;12.67;2.97;;;;;;;5.26;79.85;100690.19;6076360;23;20060;-82
2022/02/05 13:50:32;;;;;;;5.47;2.20;;;;;;;5.25;78.53;100688.44;6099096;23;20353;-82
2022/02/05 13:53:02;;;;;;;10.10;2.37;;;;;;;5.18;77.91;100684.94;6068724;23;20026;-82
2022/02/05 13:55:31;;;;;;;18.60;8.83;;;;;;;5.18;78.96;100694.53;6094858;23;20022;-82
2022/02/05 13:58:14;;;;;;;6.23;2.87;;;;;;;5.16;78.77;100710.25;6093139;23;20030;-82
2022/02/05 14:00:52;;;;;;;9.07;3.77;;;;;;;5.11;78.67;100692.75;6045921;23;20045;-83
2022/02/05 14:03:33;;;;;;;8.10;2.27;;;;;;;5.09;79.02;100698.88;6092127;23;20418;-82
2022/02/05 14:06:10;;;;;;;5.03;2.30;;;;;;;5.08;79.97;100696.25;6046734;23;20030;-82
2022/02/05 14:08:43;;;;;;;4.60;2.10;;;;;;;5.13;78.68;100709.34;6043832;23;20046;-83
2022/02/05 14:11:12;;;;;;;10.53;2.70;;;;;;;5.12;78.36;100707.59;6046554;23;20025;-82
2022/02/05 14:13:40;;;;;;;5.43;2.10;;;;;;;5.03;79.21;100709.31;6092523;23;20026;-83
2022/02/05 14:16:08;;;;;;;6.97;2.20;;;;;;;5.04;78.61;100711.09;6070826;23;20026;-82
2022/02/05 14:18:48;;;;;;;4.30;2.10;;;;;;;5.10;79.73;100705.00;6068960;23;20105;-82
2022/02/05 14:21:15;;;;;;;9.77;3.67;;;;;;;5.07;80.90;100721.56;6046118;23;20078;-81
2022/02/05 14:23:51;;;;;;;11.20;3.63;;;;;;;5.10;80.72;100718.09;6045699;23;20026;-81
2022/02/05 14:26:21;;;;;;;7.47;2.77;;;;;;;5.15;80.60;100718.09;6070263;23;20026;-84
2022/02/05 14:28:54;;;;;;;7.70;2.53;;;;;;;5.12;79.63;100716.34;6092636;23;20053;-81
2022/02/05 14:31:47;;;;;;;11.02;2.97;;;;;;;5.06;79.70;100718.97;6093620;23;20069;-84